Time;durP1;ratioP1;P1;durP2;ratioP2;P2;SDS_P1;SDS_P2;PMS_P1;PMS_P2;Temp;Humidity;BMP_temperature;BMP_pressure;BME280_temperature;BME280_humidity;BME280_pressure;Samples;Min_cycle;Max_cycle;Signal;HPM_P1;HPM_P2
2023/07/13 00:00:16;;;;;;;;;;;;;;;23.08;67.59;100733.69;7398541;19;1931;-43
2023/07/13 00:02:47;;;;;;;;;;;;;;;23.12;66.22;100725.13;7398416;19;1492;-43
2023/07/13 00:05:16;;;;;;;;;;;;;;;23.09;65.57;100721.91;7397561;19;1862;-43
2023/07/13 00:07:46;;;;;;;;;;;;;;;23.14;66.14;100735.72;7398249;19;1149;-43
2023/07/13 00:10:14;;;;;;;;;;;;;;;23.08;66.28;100720.22;7398593;19;1476;-43
2023/07/13 00:12:43;;;;;;;;;;;;;;;23.00;66.32;100735.34;7397705;19;1478;-43
2023/07/13 00:15:15;;;;;;;;;;;;;;;23.01;66.10;100715.44;7398981;19;1054;-43
2023/07/13 00:17:47;;;;;;;;;;;;;;;22.98;66.25;100725.72;7398836;19;1041;-43
2023/07/13 00:20:15;;;;;;;;;;;;;;;23.00;66.21;100708.38;7398235;19;1622;-43
2023/07/13 00:22:44;;;;;;;;;;;;;;;23.05;66.37;100715.16;7395914;19;1504;-43
2023/07/13 00:25:13;;;;;;;;;;;;;;;23.05;66.72;100715.16;7398499;19;1182;-43
2023/07/13 00:27:41;;;;;;;;;;;;;;;23.03;66.88;100718.00;7398848;19;1041;-43
2023/07/13 00:30:10;;;;;;;;;;;;;;;23.03;66.99;100699.13;7397877;19;1465;-43
2023/07/13 00:32:39;;;;;;;;;;;;;;;23.03;67.11;100708.06;7397428;19;1584;-43
2023/07/13 00:35:10;;;;;;;;;;;;;;;23.10;66.95;100702.00;7397345;19;1568;-43
2023/07/13 00:37:38;;;;;;;;;;;;;;;23.15;67.06;100715.84;7396931;19;1556;-43
2023/07/13 00:40:08;;;;;;;;;;;;;;;23.12;65.35;100700.84;7397208;19;1254;-43
2023/07/13 00:42:36;;;;;;;;;;;;;;;23.08;65.09;100688.72;7396168;19;1407;-43
2023/07/13 00:45:06;;;;;;;;;;;;;;;23.06;65.63;100700.66;7397110;19;1551;-43
2023/07/13 00:47:35;;;;;;;;;;;;;;;22.93;66.07;100707.31;7394398;19;1845;-44
2023/07/13 00:50:04;;;;;;;;;;;;;;;22.95;66.09;100696.38;7396434;19;1580;-43
2023/07/13 00:52:37;;;;;;;;;;;;;;;22.89;66.52;100697.88;7396758;19;1559;-43
2023/07/13 00:55:07;;;;;;;;;;;;;;;22.79;66.78;100694.47;7397920;19;1156;-43
2023/07/13 00:57:35;;;;;;;;;;;;;;;22.79;66.40;100699.84;7396439;19;1803;-43
2023/07/13 01:00:08;;;;;;;;;;;;;;;22.71;66.59;100699.84;7396596;19;1254;-43
2023/07/13 01:02:38;;;;;;;;;;;;;;;22.82;66.36;100704.94;7395897;19;1518;-43
2023/07/13 01:05:11;;;;;;;;;;;;;;;22.81;66.78;100697.84;7395983;19;1263;-43
2023/07/13 01:07:43;;;;;;;;;;;;;;;22.83;66.78;100707.44;7395526;19;2106;-43
2023/07/13 01:10:12;;;;;;;;;;;;;;;22.94;66.82;100698.25;7396296;19;1421;-43
2023/07/13 01:12:40;;;;;;;;;;;;;;;22.99;68.32;100689.66;7396083;19;1533;-43
2023/07/13 01:15:29;;;;;;;;;;;;;;;23.29;67.60;100695.50;7372000;19;13606;-43
2023/07/13 01:17:57;;;;;;;;;;;;;;;23.61;66.85;100697.38;7395492;19;1192;-43
2023/07/13 01:20:26;;;;;;;;;;;;;;;23.75;66.83;100690.47;7395534;19;1527;-64
2023/07/13 01:22:59;;;;;;;;;;;;;;;23.95;65.96;100672.09;7394892;19;1608;-43
2023/07/13 01:25:27;;;;;;;;;;;;;;;23.95;66.46;100672.09;7395909;19;1583;-43
2023/07/13 01:27:56;;;;;;;;;;;;;;;24.00;66.25;100688.66;7393549;19;1858;-43
2023/07/13 01:30:24;;;;;;;;;;;;;;;24.14;65.80;100679.84;7395759;19;1144;-43
2023/07/13 01:32:52;;;;;;;;;;;;;;;24.08;65.98;100677.81;7397780;19;1881;-43
2023/07/13 01:35:20;;;;;;;;;;;;;;;23.84;67.15;100683.28;7378528;19;13651;-43
2023/07/13 01:37:49;;;;;;;;;;;;;;;24.02;66.90;100692.03;7403091;19;1520;-43
2023/07/13 01:40:20;;;;;;;;;;;;;;;24.10;66.30;100689.31;7401758;19;1270;-43
2023/07/13 01:42:48;;;;;;;;;;;;;;;24.20;66.29;100681.03;7403948;19;1044;-43
2023/07/13 01:45:17;;;;;;;;;;;;;;;24.21;66.11;100686.25;7402593;19;1651;-43
2023/07/13 01:47:45;;;;;;;;;;;;;;;24.26;66.05;100679.50;7400692;19;1868;-43
2023/07/13 01:50:13;;;;;;;;;;;;;;;24.31;65.78;100677.09;7403838;19;1549;-43
2023/07/13 01:52:41;;;;;;;;;;;;;;;24.17;66.39;100694.84;7402895;19;1535;-43
2023/07/13 01:55:10;;;;;;;;;;;;;;;24.25;66.05;100685.91;7403993;19;1147;-43
2023/07/13 01:57:41;;;;;;;;;;;;;;;24.25;66.18;100685.91;7402894;19;1853;-43
2023/07/13 02:00:11;;;;;;;;;;;;;;;24.10;66.44;100697.41;7401394;19;1556;-43
2023/07/13 02:02:39;;;;;;;;;;;;;;;24.31;66.12;100690.59;7402141;19;1583;-43
2023/07/13 02:05:08;;;;;;;;;;;;;;;24.27;66.07;100698.22;7402181;19;1451;-43
2023/07/13 02:07:37;;;;;;;;;;;;;;;24.16;66.46;100698.59;7401050;19;1859;-43
2023/07/13 02:10:05;;;;;;;;;;;;;;;24.24;66.47;100695.03;7402926;19;1839;-43
2023/07/13 02:12:33;;;;;;;;;;;;;;;24.24;66.59;100690.47;7402977;19;1489;-43
2023/07/13 02:15:05;;;;;;;;;;;;;;;24.29;66.63;100692.63;7402746;19;1539;-43
2023/07/13 02:17:33;;;;;;;;;;;;;;;23.99;67.14;100692.34;7397840;19;1381;-43
2023/07/13 02:20:02;;;;;;;;;;;;;;;24.03;66.45;100691.00;7400139;19;1575;-43
2023/07/13 02:22:30;;;;;;;;;;;;;;;23.94;66.92;100692.88;7400212;19;1576;-43
2023/07/13 02:24:59;;;;;;;;;;;;;;;24.14;66.80;100696.06;7402300;19;1295;-43
2023/07/13 02:27:27;;;;;;;;;;;;;;;24.22;66.43;100692.50;7400097;19;1847;-43
2023/07/13 02:29:55;;;;;;;;;;;;;;;24.13;66.14;100694.38;7400744;19;1552;-43
2023/07/13 02:32:27;;;;;;;;;;;;;;;24.10;66.00;100688.47;7400168;19;1704;-43
2023/07/13 02:34:55;;;;;;;;;;;;;;;24.16;65.50;100699.41;7400875;19;1587;-43
2023/07/13 02:37:23;;;;;;;;;;;;;;;24.14;65.66;100685.25;7400897;19;1258;-43
2023/07/13 02:39:52;;;;;;;;;;;;;;;24.31;65.38;100701.41;7401819;19;1250;-43
2023/07/13 02:42:20;;;;;;;;;;;;;;;24.34;65.40;100703.78;7400530;19;1496;-43
2023/07/13 02:44:49;;;;;;;;;;;;;;;24.21;66.71;100688.97;7399047;19;1655;-43
2023/07/13 02:47:17;;;;;;;;;;;;;;;23.91;67.43;100701.28;7399460;19;1849;-43
2023/07/13 02:49:48;;;;;;;;;;;;;;;23.84;67.25;100704.88;7401323;19;1473;-43
2023/07/13 02:52:17;;;;;;;;;;;;;;;23.79;67.25;100700.78;7401112;19;1568;-43
2023/07/13 02:54:45;;;;;;;;;;;;;;;23.79;67.28;100710.75;7401974;19;1204;-43
2023/07/13 02:57:13;;;;;;;;;;;;;;;23.90;66.88;100696.94;7400829;19;1722;-43
2023/07/13 02:59:41;;;;;;;;;;;;;;;23.92;66.76;100680.56;7400150;19;1551;-43
2023/07/13 03:02:10;;;;;;;;;;;;;;;24.10;66.17;100689.31;7399539;19;1390;-43
2023/07/13 03:04:39;;;;;;;;;;;;;;;24.18;65.74;100692.00;7398042;19;1280;-43
2023/07/13 03:07:10;;;;;;;;;;;;;;;24.12;65.89;100698.09;7398162;19;1882;-43
2023/07/13 03:09:38;;;;;;;;;;;;;;;24.13;65.78;100683.56;7400368;19;1172;-43
2023/07/13 03:12:07;;;;;;;;;;;;;;;23.93;66.05;100685.75;7400111;19;1481;-43
2023/07/13 03:14:36;;;;;;;;;;;;;;;24.04;65.62;100686.47;7399170;19;1193;-43
2023/07/13 03:17:04;;;;;;;;;;;;;;;23.98;66.16;100698.78;7399298;19;1485;-43
2023/07/13 03:19:32;;;;;;;;;;;;;;;23.90;66.21;100694.22;7399243;19;1215;-43
2023/07/13 03:22:00;;;;;;;;;;;;;;;23.88;66.08;100674.66;7400078;19;1581;-43
2023/07/13 03:24:31;;;;;;;;;;;;;;;23.89;66.22;100691.69;7400067;19;1330;-43
2023/07/13 03:26:59;;;;;;;;;;;;;;;23.96;65.82;100685.44;7398663;19;1863;-43
2023/07/13 03:29:28;;;;;;;;;;;;;;;23.94;66.08;100702.84;7399135;19;1478;-43
2023/07/13 03:31:56;;;;;;;;;;;;;;;24.05;65.97;100697.06;7399537;19;1548;-43
2023/07/13 03:34:24;;;;;;;;;;;;;;;23.85;66.71;100684.94;7398191;19;1292;-43
2023/07/13 03:36:53;;;;;;;;;;;;;;;23.75;67.26;100701.28;7398934;19;1556;-43
2023/07/13 03:39:21;;;;;;;;;;;;;;;23.68;67.59;100695.72;7399950;19;1118;-43
2023/07/13 03:41:52;;;;;;;;;;;;;;;23.65;67.56;100706.00;7399044;19;1175;-43
2023/07/13 03:44:21;;;;;;;;;;;;;;;23.75;67.14;100696.72;7398262;19;1576;-43
2023/07/13 03:46:49;;;;;;;;;;;;;;;23.70;67.45;100688.28;7398356;19;1852;-43
2023/07/13 03:49:17;;;;;;;;;;;;;;;23.66;67.51;100688.81;7398717;19;1485;-43
2023/07/13 03:51:46;;;;;;;;;;;;;;;23.66;67.75;100697.75;7398828;19;1167;-43
2023/07/13 03:54:14;;;;;;;;;;;;;;;23.71;67.59;100708.03;7399321;19;1318;-43
2023/07/13 03:56:42;;;;;;;;;;;;;;;23.77;67.31;100686.63;7396967;19;1835;-43
2023/07/13 03:59:13;;;;;;;;;;;;;;;23.85;67.21;100706.53;7397792;19;1198;-43
2023/07/13 04:01:41;;;;;;;;;;;;;;;23.81;67.32;100701.50;7396051;19;1683;-43
2023/07/13 04:04:10;;;;;;;;;;;;;;;23.78;67.38;100691.03;7397672;19;1968;-43
2023/07/13 04:06:38;;;;;;;;;;;;;;;23.94;67.00;100692.88;7397740;19;1875;-43
2023/07/13 04:09:08;;;;;;;;;;;;;;;24.09;66.51;100692.16;7397625;19;1619;-43
2023/07/13 04:11:38;;;;;;;;;;;;;;;24.00;66.73;100691.34;7396942;19;1285;-43
2023/07/13 04:14:06;;;;;;;;;;;;;;;24.02;66.74;100697.44;7395040;19;1505;-43
2023/07/13 04:16:37;;;;;;;;;;;;;;;24.08;66.77;100695.91;7397124;19;1550;-43
2023/07/13 04:19:05;;;;;;;;;;;;;;;24.14;66.53;100701.47;7397793;19;1497;-43
2023/07/13 04:21:34;;;;;;;;;;;;;;;23.88;66.55;100652.22;7397133;19;1490;-43
2023/07/13 04:24:02;;;;;;;;;;;;;;;24.10;66.81;100702.81;7397979;19;1246;-43
2023/07/13 04:26:31;;;;;;;;;;;;;;;24.14;66.77;100696.06;7398086;19;1180;-43
2023/07/13 04:28:59;;;;;;;;;;;;;;;24.27;66.29;100710.88;7395970;19;1897;-43
2023/07/13 04:31:28;;;;;;;;;;;;;;;24.28;66.24;100705.31;7397139;19;1661;-43
2023/07/13 04:33:59;;;;;;;;;;;;;;;24.52;65.66;100714.41;7396722;19;1410;-43
2023/07/13 04:36:28;;;;;;;;;;;;;;;24.51;66.28;100715.41;7395781;19;1347;-42
2023/07/13 04:38:56;;;;;;;;;;;;;;;24.38;67.00;100715.94;7398287;19;1135;-43
2023/07/13 04:41:24;;;;;;;;;;;;;;;24.42;67.08;100709.16;7393806;19;1614;-42
2023/07/13 04:43:53;;;;;;;;;;;;;;;24.33;67.29;100705.66;7396865;19;1556;-43
2023/07/13 04:46:21;;;;;;;;;;;;;;;24.45;66.94;100743.94;7393847;19;1446;-44
2023/07/13 04:48:53;;;;;;;;;;;;;;;24.25;67.40;100718.31;7394210;19;1870;-43
2023/07/13 04:51:24;;;;;;;;;;;;;;;24.36;67.30;100742.31;7395626;19;1251;-43
2023/07/13 04:53:52;;;;;;;;;;;;;;;24.17;67.66;100727.28;7395511;19;1472;-43
2023/07/13 04:56:20;;;;;;;;;;;;;;;24.29;67.46;100725.06;7393554;19;1529;-43
2023/07/13 04:58:48;;;;;;;;;;;;;;;24.31;67.42;100726.59;7396282;19;1545;-43
2023/07/13 05:01:17;;;;;;;;;;;;;;;24.36;67.14;100723.38;7394227;19;1450;-43
2023/07/13 05:03:45;;;;;;;;;;;;;;;24.37;67.12;100723.22;7396509;19;1470;-43
2023/07/13 05:06:13;;;;;;;;;;;;;;;24.41;67.18;100715.56;7395469;19;1626;-43
2023/07/13 05:08:44;;;;;;;;;;;;;;;24.55;66.92;100725.75;7391127;19;1859;-43
2023/07/13 05:11:12;;;;;;;;;;;;;;;24.64;66.48;100733.81;7390550;19;1156;-43
2023/07/13 05:13:41;;;;;;;;;;;;;;;24.64;66.46;100731.13;7391178;19;1581;-43
2023/07/13 05:16:09;;;;;;;;;;;;;;;24.76;66.48;100721.59;7392044;19;1484;-42
2023/07/13 05:18:38;;;;;;;;;;;;;;;24.71;66.42;100737.50;7395768;19;1474;-42
2023/07/13 05:21:07;;;;;;;;;;;;;;;24.66;66.79;100729.06;7397434;19;1154;-42
2023/07/13 05:23:36;;;;;;;;;;;;;;;24.71;66.59;100721.28;7396002;19;1845;-43
2023/07/13 05:26:07;;;;;;;;;;;;;;;24.77;66.13;100731.38;7394473;19;1493;-43
2023/07/13 05:28:36;;;;;;;;;;;;;;;24.79;66.23;100723.97;7393132;19;1871;-42
2023/07/13 05:31:04;;;;;;;;;;;;;;;24.79;66.40;100726.69;7394807;19;1482;-43
2023/07/13 05:33:32;;;;;;;;;;;;;;;24.81;66.61;100740.88;7394891;19;1418;-42
2023/07/13 05:36:01;;;;;;;;;;;;;;;24.74;66.56;100719.06;7395957;19;1224;-42
2023/07/13 05:38:29;;;;;;;;;;;;;;;24.73;66.88;100730.06;7394276;19;1453;-42
2023/07/13 05:40:58;;;;;;;;;;;;;;;24.75;66.66;100730.72;7393890;19;1509;-42
2023/07/13 05:43:29;;;;;;;;;;;;;;;24.74;66.67;100729.06;7394716;19;1279;-42
2023/07/13 05:45:58;;;;;;;;;;;;;;;24.74;66.73;100740.69;7395403;19;1529;-42
2023/07/13 05:48:27;;;;;;;;;;;;;;;24.74;66.96;100746.09;7393374;19;1861;-42
2023/07/13 05:50:55;;;;;;;;;;;;;;;24.76;66.87;100732.41;7394482;19;1787;-43
2023/07/13 05:53:23;;;;;;;;;;;;;;;24.78;67.00;100733.09;7393887;19;1615;-42
2023/07/13 05:55:52;;;;;;;;;;;;;;;25.11;65.75;100738.34;7393998;19;1308;-42
2023/07/13 05:58:21;;;;;;;;;;;;;;;25.03;66.07;100728.44;7393635;19;1675;-42
2023/07/13 06:01:00;;;;;;;;;;;;;;;24.93;66.65;100739.47;7391406;19;1767;-43
2023/07/13 06:03:29;;;;;;;;;;;;;;;25.02;66.38;100734.84;7391438;19;1404;-42
2023/07/13 06:05:57;;;;;;;;;;;;;;;25.18;66.16;100731.22;7386877;19;1385;-43
2023/07/13 06:08:25;;;;;;;;;;;;;;;25.33;65.64;100728.66;7388611;19;1883;-42
2023/07/13 06:10:54;;;;;;;;;;;;;;;25.42;65.60;100730.25;7391510;19;1328;-42
2023/07/13 06:13:22;;;;;;;;;;;;;;;25.29;65.59;100741.69;7391207;19;1775;-42
2023/07/13 06:15:53;;;;;;;;;;;;;;;25.15;66.13;100753.25;7391549;19;1437;-42
2023/07/13 06:18:21;;;;;;;;;;;;;;;25.13;66.55;100755.28;7390781;19;1715;-42
2023/07/13 06:20:50;;;;;;;;;;;;;;;25.09;66.80;100776.44;7396440;19;1611;-43
2023/07/13 06:23:18;;;;;;;;;;;;;;;25.10;67.08;100751.03;7394516;19;1404;-43
2023/07/13 06:25:46;;;;;;;;;;;;;;;25.36;66.22;100758.03;7396912;19;1532;-43
2023/07/13 06:28:14;;;;;;;;;;;;;;;25.50;65.65;100745.63;7396332;19;1849;-43
2023/07/13 06:30:43;;;;;;;;;;;;;;;25.48;65.52;100745.78;7394762;19;1350;-43
2023/07/13 06:33:14;;;;;;;;;;;;;;;25.26;65.92;100744.72;7395584;19;1591;-43
2023/07/13 06:35:42;;;;;;;;;;;;;;;25.38;66.47;100743.31;7398226;19;1837;-43
2023/07/13 06:38:10;;;;;;;;;;;;;;;25.52;66.16;100740.84;7401612;19;1594;-43
2023/07/13 06:40:38;;;;;;;;;;;;;;;25.57;65.71;100752.84;7401346;19;1686;-43
2023/07/13 06:43:07;;;;;;;;;;;;;;;25.45;65.99;100750.75;7402441;19;1823;-43
2023/07/13 06:45:35;;;;;;;;;;;;;;;25.24;66.90;100745.94;7402110;19;1845;-43
2023/07/13 06:48:04;;;;;;;;;;;;;;;25.39;66.23;100739.59;7399522;19;1947;-43
2023/07/13 06:50:35;;;;;;;;;;;;;;;25.23;67.04;100736.97;7400935;19;1560;-43
2023/07/13 06:53:04;;;;;;;;;;;;;;;25.25;66.38;100726.81;7401008;19;1402;-43
2023/07/13 06:55:32;;;;;;;;;;;;;;;25.30;66.27;100729.00;7400962;19;1887;-43
2023/07/13 06:58:00;;;;;;;;;;;;;;;25.32;67.60;100735.91;7400795;19;1592;-43
2023/07/13 07:00:28;;;;;;;;;;;;;;;25.23;68.82;100742.41;7398616;19;1786;-43
2023/07/13 07:02:57;;;;;;;;;;;;;;;25.33;68.18;100740.31;7397797;19;1265;-43
2023/07/13 07:05:25;;;;;;;;;;;;;;;25.34;67.53;100746.56;7400055;19;1484;-42
2023/07/13 07:07:57;;;;;;;;;;;;;;;25.22;69.08;100737.16;7399476;19;1837;-43
2023/07/13 07:10:25;;;;;;;;;;;;;;;25.17;68.70;100741.22;7399571;19;1347;-43
2023/07/13 07:12:53;;;;;;;;;;;;;;;25.12;69.05;100721.09;7399395;19;1500;-43
2023/07/13 07:15:21;;;;;;;;;;;;;;;25.02;70.16;100732.97;7399145;19;1361;-44
2023/07/13 07:17:50;;;;;;;;;;;;;;;25.13;67.04;100730.91;7399907;19;1200;-43
2023/07/13 07:20:18;;;;;;;;;;;;;;;25.08;67.77;100736.00;7398336;19;1540;-43
2023/07/13 07:22:46;;;;;;;;;;;;;;;24.93;68.41;100731.34;7399051;19;1445;-43
2023/07/13 07:25:17;;;;;;;;;;;;;;;24.86;68.58;100722.22;7397294;19;1522;-43
2023/07/13 07:27:46;;;;;;;;;;;;;;;24.94;67.85;100730.31;7395762;19;1846;-43
2023/07/13 07:30:15;;;;;;;;;;;;;;;24.86;68.59;100719.53;7394379;19;1524;-43
2023/07/13 07:32:44;;;;;;;;;;;;;;;24.96;66.27;100712.03;7398250;19;1211;-43
2023/07/13 07:35:12;;;;;;;;;;;;;;;24.85;68.61;100728.69;7399027;19;1544;-43
2023/07/13 07:37:40;;;;;;;;;;;;;;;24.87;68.53;100718.53;7398970;19;1564;-43
2023/07/13 07:40:10;;;;;;;;;;;;;;;24.89;68.03;100724.59;7397066;19;1278;-43
2023/07/13 07:42:41;;;;;;;;;;;;;;;25.08;67.03;100719.78;7395086;19;1928;-43
2023/07/13 07:45:11;;;;;;;;;;;;;;;25.23;67.38;100709.91;7398210;19;1251;-43
2023/07/13 07:47:39;;;;;;;;;;;;;;;25.08;69.01;100728.72;7398764;19;1500;-43
2023/07/13 07:50:08;;;;;;;;;;;;;;;25.14;68.96;100719.91;7395905;19;1865;-43
2023/07/13 07:52:36;;;;;;;;;;;;;;;24.60;70.80;100728.75;7397813;19;1465;-43
2023/07/13 07:55:06;;;;;;;;;;;;;;;24.12;69.13;100710.75;7399286;19;1117;-43
2023/07/13 07:57:34;;;;;;;;;;;;;;;23.87;67.44;100739.63;7398967;19;1497;-43
2023/07/13 08:00:05;;;;;;;;;;;;;;;23.79;65.79;100722.41;7396119;19;1877;-43
2023/07/13 08:02:34;;;;;;;;;;;;;;;23.90;64.33;100734.72;7396169;19;1239;-43
2023/07/13 08:05:02;;;;;;;;;;;;;;;23.91;64.35;100730.16;7396735;19;1749;-43
2023/07/13 08:07:32;;;;;;;;;;;;;;;23.94;64.31;100732.53;7397768;19;1746;-43
2023/07/13 08:10:00;;;;;;;;;;;;;;;23.90;64.17;100717.69;7397130;19;1861;-43
2023/07/13 08:12:29;;;;;;;;;;;;;;;23.69;64.37;100734.34;7398686;19;1083;-43
2023/07/13 08:14:57;;;;;;;;;;;;;;;23.78;64.27;100723.41;7398180;19;1967;-43
2023/07/13 08:17:28;;;;;;;;;;;;;;;23.80;65.59;100721.41;7397703;19;1563;-43
2023/07/13 08:19:56;;;;;;;;;;;;;;;23.89;66.25;100735.72;7395873;19;1826;-43
2023/07/13 08:22:25;;;;;;;;;;;;;;;23.84;67.02;100735.41;7396265;19;1378;-43
2023/07/13 08:24:55;;;;;;;;;;;;;;;23.94;67.65;100738.78;7397042;19;1063;-44
2023/07/13 08:27:24;;;;;;;;;;;;;;;23.70;66.14;100739.59;7396000;19;1945;-43
2023/07/13 08:29:53;;;;;;;;;;;;;;;23.36;64.00;100751.34;7393976;19;1869;-43
2023/07/13 08:32:22;;;;;;;;;;;;;;;23.11;62.15;100733.38;7397817;19;1704;-43
2023/07/13 08:34:53;;;;;;;;;;;;;;;22.89;60.99;100732.09;7396841;19;1730;-43
2023/07/13 08:37:22;;;;;;;;;;;;;;;22.60;59.78;100728.75;7395981;19;1695;-43
2023/07/13 08:39:51;;;;;;;;;;;;;;;22.42;58.73;100734.22;7395698;19;1103;-43
2023/07/13 08:42:34;;;;;;;;;;;;;;;22.28;58.22;100731.25;7394663;19;1892;-43
2023/07/13 08:45:10;;;;;;;;;;;;;;;22.31;57.03;100736.31;7395694;19;1889;-43
2023/07/13 08:47:41;;;;;;;;;;;;;;;22.25;56.18;100740.50;7394960;19;1580;-43
2023/07/13 08:50:16;;;;;;;;;;;;;;;22.13;55.95;100734.47;7395035;19;1864;-43
2023/07/13 08:52:46;;;;;;;;;;;;;;;22.09;55.76;100721.50;7396487;19;1816;-42
2023/07/13 08:55:15;;;;;;;;;;;;;;;22.48;58.94;100721.94;7396740;19;1110;-43
2023/07/13 08:57:44;;;;;;;;;;;;;;;22.87;60.46;100721.47;7397043;19;1850;-43
2023/07/13 09:00:15;;;;;;;;;;;;;;;23.11;62.57;100720.72;7394977;19;1508;-43
2023/07/13 09:02:45;;;;;;;;;;;;;;;23.23;63.60;100708.63;7395387;19;1762;-43
2023/07/13 09:05:17;;;;;;;;;;;;;;;23.42;64.62;100696.69;7395838;19;1826;-43
2023/07/13 09:07:52;;;;;;;;;;;;;;;23.39;64.44;100699.72;7397228;19;1675;-43
2023/07/13 09:10:24;;;;;;;;;;;;;;;23.11;63.66;100714.50;7394879;19;1899;-43
2023/07/13 09:13:00;;;;;;;;;;;;;;;23.06;63.51;100696.13;7395229;19;1366;-43
2023/07/13 09:15:30;;;;;;;;;;;;;;;23.09;63.46;100713.81;7396557;19;1761;-43
2023/07/13 09:18:02;;;;;;;;;;;;;;;22.98;64.15;100688.81;7395565;19;1096;-43
2023/07/13 09:20:35;;;;;;;;;;;;;;;23.12;65.36;100697.28;7395596;19;1413;-43
2023/07/13 09:23:06;;;;;;;;;;;;;;;23.33;65.83;100713.88;7395813;19;1153;-43
2023/07/13 09:25:35;;;;;;;;;;;;;;;23.41;66.38;100695.00;7396302;19;1541;-43
2023/07/13 09:28:06;;;;;;;;;;;;;;;23.49;67.13;100699.56;7395879;19;1494;-43
2023/07/13 09:30:37;;;;;;;;;;;;;;;23.55;67.62;100695.34;7393739;19;1835;-43
2023/07/13 09:33:06;;;;;;;;;;;;;;;23.56;67.90;100722.19;7394809;19;1540;-43
2023/07/13 09:35:37;;;;;;;;;;;;;;;23.61;68.43;100716.28;7392832;19;1469;-44
2023/07/13 09:38:13;;;;;;;;;;;;;;;23.42;68.71;100712.91;7395011;19;1181;-43
2023/07/13 09:40:59;;;;;;;;;;;;;;;23.21;68.82;100712.50;7393338;19;1341;-44
2023/07/13 09:43:28;;;;;;;;;;;;;;;23.26;68.47;100701.22;7391050;19;1343;-44
2023/07/13 09:45:57;;;;;;;;;;;;;;;23.35;68.38;100721.81;7393921;19;1203;-44
2023/07/13 09:48:25;;;;;;;;;;;;;;;23.20;68.34;100719.75;7392838;19;1937;-44
2023/07/13 09:51:09;;;;;;;;;;;;;;;23.10;68.27;100719.06;7393189;19;1576;-44
2023/07/13 09:53:38;;;;;;;;;;;;;;;23.14;67.67;100715.03;7394640;19;1915;-44
2023/07/13 09:56:21;;;;;;;;;;;;;;;23.06;68.68;100711.44;7400753;19;1436;-44
2023/07/13 09:58:49;;;;;;;;;;;;;;;23.05;68.88;100725.94;7400613;19;1552;-57
2023/07/13 10:01:18;;;;;;;;;;;;;;;23.18;68.68;100716.38;7396664;19;1607;-44
2023/07/13 10:03:55;;;;;;;;;;;;;;;23.24;68.56;100720.28;7399103;19;1313;-44
2023/07/13 10:06:26;;;;;;;;;;;;;;;23.39;69.09;100710.50;7400260;19;1254;-46
2023/07/13 10:08:54;;;;;;;;;;;;;;;23.54;69.26;100715.28;7398492;19;1861;-44
2023/07/13 10:11:24;;;;;;;;;;;;;;;23.62;69.65;100708.03;7398542;19;1430;-44
2023/07/13 10:13:55;;;;;;;;;;;;;;;23.57;71.29;100709.53;7399062;19;1426;-44
2023/07/13 10:16:24;;;;;;;;;;;;;;;23.63;70.75;100689.97;7401668;19;1406;-44
2023/07/13 10:18:54;;;;;;;;;;;;;;;23.68;71.54;100709.22;7400572;19;1862;-43
2023/07/13 10:21:24;;;;;;;;;;;;;;;23.73;72.08;100708.69;7401295;19;1482;-44
2023/07/13 10:23:58;;;;;;;;;;;;;;;23.71;72.17;100706.16;7400435;19;1603;-43
2023/07/13 10:26:28;;;;;;;;;;;;;;;23.57;72.45;100701.44;7401715;19;1831;-44
2023/07/13 10:28:59;;;;;;;;;;;;;;;23.50;72.00;100711.22;7400116;19;1927;-44
2023/07/13 10:31:27;;;;;;;;;;;;;;;23.59;72.45;100702.94;7400557;19;1400;-45
2023/07/13 10:33:55;;;;;;;;;;;;;;;23.55;72.95;100706.16;7400036;19;1525;-45
2023/07/13 10:36:31;;;;;;;;;;;;;;;23.69;72.72;100702.78;7401058;19;1961;-44
2023/07/13 10:39:03;;;;;;;;;;;;;;;23.71;71.16;100689.13;7401787;19;1287;-44
2023/07/13 10:41:33;;;;;;;;;;;;;;;23.59;72.02;100702.09;7399822;19;1655;-44
2023/07/13 10:44:03;;;;;;;;;;;;;;;23.71;71.88;100695.34;7400833;19;1841;-43
2023/07/13 10:46:31;;;;;;;;;;;;;;;23.64;72.54;100672.78;7398882;19;1553;-44
2023/07/13 10:49:01;;;;;;;;;;;;;;;23.59;72.78;100691.31;7399907;19;1841;-44
2023/07/13 10:51:30;;;;;;;;;;;;;;;23.60;72.47;100687.63;7401693;19;1469;-43
2023/07/13 10:54:18;;;;;;;;;;;;;;;23.57;71.96;100663.66;7400896;19;1195;-44
2023/07/13 10:56:47;;;;;;;;;;;;;;;23.56;72.26;100661.97;7400398;19;1796;-43
2023/07/13 10:59:19;;;;;;;;;;;;;;;23.62;72.38;100648.63;7400127;19;1429;-44
2023/07/13 11:01:57;;;;;;;;;;;;;;;23.62;72.70;100627.03;7397230;19;1577;-44
2023/07/13 11:04:26;;;;;;;;;;;;;;;23.63;71.77;100642.25;7398855;19;1611;-43
2023/07/13 11:06:58;;;;;;;;;;;;;;;23.84;71.71;100645.47;7398397;19;1350;-43
2023/07/13 11:09:38;;;;;;;;;;;;;;;23.85;71.94;100649.84;7401060;19;1857;-44
2023/07/13 11:12:14;;;;;;;;;;;;;;;23.91;71.70;100630.25;7400692;19;1442;-44
2023/07/13 11:14:45;;;;;;;;;;;;;;;23.80;71.83;100635.00;7397613;19;1426;-44
2023/07/13 11:17:29;;;;;;;;;;;;;;;23.81;71.34;100635.81;7400946;19;1564;-43
2023/07/13 11:20:11;;;;;;;;;;;;;;;23.85;71.62;100628.22;7399109;19;1544;-44
2023/07/13 11:22:47;;;;;;;;;;;;;;;23.89;71.94;100624.16;7400251;19;1532;-44
2023/07/13 11:25:32;;;;;;;;;;;;;;;23.85;71.40;100628.22;7400827;19;1243;-44
2023/07/13 11:28:18;;;;;;;;;;;;;;;23.79;71.73;100627.88;7399831;19;1112;-44
2023/07/13 11:30:48;;;;;;;;;;;;;;;23.76;70.30;100625.50;7397442;19;1861;-44
2023/07/13 11:33:18;;;;;;;;;;;;;;;23.77;68.40;100616.41;7399125;19;1013;-44
2023/07/13 11:35:52;;;;;;;;;;;;;;;23.69;68.54;100600.19;7399046;19;1770;-42
2023/07/13 11:38:21;;;;;;;;;;;;;;;23.69;68.37;100611.00;7399154;19;1192;-41
2023/07/13 11:40:56;;;;;;;;;;;;;;;23.58;68.10;100603.25;7397944;19;1751;-42
2023/07/13 11:43:25;;;;;;;;;;;;;;;23.66;67.32;100591.63;7398519;19;1391;-42
2023/07/13 11:45:54;;;;;;;;;;;;;;;23.58;67.32;100587.91;7399823;19;1852;-42
2023/07/13 11:48:24;;;;;;;;;;;;;;;23.76;66.86;100587.72;7397998;19;1595;-42
2023/07/13 11:50:54;;;;;;;;;;;;;;;23.82;66.35;100584.34;7397573;19;1841;-42
2023/07/13 11:53:22;;;;;;;;;;;;;;;23.84;66.90;100567.16;7397108;19;1470;-41
2023/07/13 11:55:53;;;;;;;;;;;;;;;23.67;66.76;100585.19;7398822;19;1461;-42
2023/07/13 11:58:23;;;;;;;;;;;;;;;23.84;66.15;100583.34;7399264;19;1631;-42
2023/07/13 12:00:54;;;;;;;;;;;;;;;23.94;65.67;100570.50;7397111;19;1632;-42
2023/07/13 12:03:24;;;;;;;;;;;;;;;23.96;65.70;100580.09;7398727;19;1156;-42
2023/07/13 12:06:00;;;;;;;;;;;;;;;23.84;66.25;100569.84;7398431;19;1099;-41
2023/07/13 12:08:28;;;;;;;;;;;;;;;24.03;65.91;100588.34;7398729;19;1017;-42
2023/07/13 12:11:04;;;;;;;;;;;;;;;23.99;65.89;100562.69;7397106;19;1845;-42
2023/07/13 12:13:37;;;;;;;;;;;;;;;23.98;66.23;100555.63;7396726;19;1571;-43
2023/07/13 12:16:13;;;;;;;;;;;;;;;24.01;66.11;100571.47;7397819;19;1501;-43
2023/07/13 12:18:41;;;;;;;;;;;;;;;23.90;66.03;100561.06;7396160;19;1541;-43
2023/07/13 12:21:14;;;;;;;;;;;;;;;23.97;66.45;100562.91;7399014;19;1136;-43
2023/07/13 12:23:45;;;;;;;;;;;;;;;24.06;66.30;100576.38;7398969;19;1048;-43
2023/07/13 12:26:17;;;;;;;;;;;;;;;23.96;66.21;100563.06;7398634;19;1607;-42
2023/07/13 12:28:48;;;;;;;;;;;;;;;23.94;66.04;100551.59;7398236;19;1207;-43
2023/07/13 12:31:26;;;;;;;;;;;;;;;23.98;66.17;100558.31;7396889;19;1865;-43
2023/07/13 12:33:59;;;;;;;;;;;;;;;23.89;66.80;100556.66;7399188;19;1048;-42
2023/07/13 12:36:29;;;;;;;;;;;;;;;23.79;66.35;100563.09;7398298;19;1584;-43
2023/07/13 12:38:57;;;;;;;;;;;;;;;23.71;66.19;100549.56;7393565;19;1765;-43
2023/07/13 12:41:28;;;;;;;;;;;;;;;23.78;65.81;100557.88;7395855;19;1302;-42
2023/07/13 12:43:56;;;;;;;;;;;;;;;23.82;65.31;100534.91;7396586;19;1490;-43
2023/07/13 12:46:28;;;;;;;;;;;;;;;23.91;64.92;100550.06;7396655;19;1265;-43
2023/07/13 12:48:57;;;;;;;;;;;;;;;23.97;64.45;100562.03;7397064;19;1555;-42
2023/07/13 12:51:26;;;;;;;;;;;;;;;24.06;64.23;100558.31;7395415;19;1853;-43
2023/07/13 12:53:59;;;;;;;;;;;;;;;23.93;64.08;100541.78;7398186;19;1541;-43
2023/07/13 12:56:31;;;;;;;;;;;;;;;23.78;64.64;100541.69;7395888;19;1531;-43
2023/07/13 12:59:01;;;;;;;;;;;;;;;23.66;65.19;100561.94;7395989;19;1288;-42
2023/07/13 13:01:30;;;;;;;;;;;;;;;23.74;64.91;100540.31;7395127;19;1164;-43